Igarape, Brazil
Current Conditions -  °F | °C
As of 1:00 PM on Friday 24 Oct 2014 (Local Time) from SBBH Reporting Station
Few Clouds Few Clouds  
Wind Chill: 84°   Ceiling: Unl
Heat Index: 84°   Visibility: 6mi
Dew Point: 52°   Wind: 8mph
Humidity: 33%   Direction: 60°ENE
Pressure: 30.06"   Gusts: NA
Location:  20.07°S, 44.3°W
Report Text: SBBH 241500Z 06007KT 9999 FEW025 29/11 Q1018
Loading
Personal Weather Stations






























Interactive Weather Map
Tropical Storm Tracking
New forecast layout! Learn more

10-Day Weather Forecast

Advertisements
Track Severe Weather on mobile